Terminal Aerodrome Forecast
Issued by NWS

Home | Current Version | Previous Version | Text Only | Print | Product List | Glossary On
Versions: 1 2 3 4 5 6 7 8 9 10 11 12 13 14 15 16 17 18 19 20 21
000
FTAK31 PAFA 290538
TAFAQT
TAF
PAQT 290538Z 2906/3006 VRB04KT P6SM VCSH OVC012
     FM291200 08004KT 4SM BR VCSH BKN008 OVC012
     FM300000 08005KT 6SM BR VCSH BKN008 OVC015=

USA.gov is the U.S. government's official web portal to all federal, state and local government web resources and services.